sensor_id;sensor_type;location;lat;lon;timestamp;P1;durP1;ratioP1;P2;durP2;ratioP2
4420;SDS011;11824;51.178;13.546;2023-05-23T00:02:27;7.90;;;5.77;;
4420;SDS011;11824;51.178;13.546;2023-05-23T00:04:55;12.30;;;6.97;;
4420;SDS011;11824;51.178;13.546;2023-05-23T00:07:23;7.40;;;5.63;;
4420;SDS011;11824;51.178;13.546;2023-05-23T00:09:51;10.53;;;6.00;;
4420;SDS011;11824;51.178;13.546;2023-05-23T00:12:18;7.93;;;6.80;;
4420;SDS011;11824;51.178;13.546;2023-05-23T00:14:47;9.00;;;6.40;;
4420;SDS011;11824;51.178;13.546;2023-05-23T00:17:14;12.77;;;6.03;;
4420;SDS011;11824;51.178;13.546;2023-05-23T00:19:42;11.90;;;6.47;;
4420;SDS011;11824;51.178;13.546;2023-05-23T00:22:10;16.43;;;6.83;;
4420;SDS011;11824;51.178;13.546;2023-05-23T00:24:40;20.83;;;5.97;;
4420;SDS011;11824;51.178;13.546;2023-05-23T00:27:09;17.00;;;8.10;;
4420;SDS011;11824;51.178;13.546;2023-05-23T00:29:36;11.60;;;7.00;;
4420;SDS011;11824;51.178;13.546;2023-05-23T00:32:03;9.10;;;6.50;;
4420;SDS011;11824;51.178;13.546;2023-05-23T00:34:31;12.47;;;7.80;;
4420;SDS011;11824;51.178;13.546;2023-05-23T00:36:59;12.80;;;6.37;;
4420;SDS011;11824;51.178;13.546;2023-05-23T00:39:27;12.20;;;7.20;;
4420;SDS011;11824;51.178;13.546;2023-05-23T00:41:55;9.87;;;7.40;;
4420;SDS011;11824;51.178;13.546;2023-05-23T00:44:22;11.93;;;6.73;;
4420;SDS011;11824;51.178;13.546;2023-05-23T00:46:51;13.50;;;6.73;;
4420;SDS011;11824;51.178;13.546;2023-05-23T00:49:21;8.00;;;6.10;;
4420;SDS011;11824;51.178;13.546;2023-05-23T00:51:49;9.50;;;6.60;;
4420;SDS011;11824;51.178;13.546;2023-05-23T00:54:17;8.23;;;6.40;;
4420;SDS011;11824;51.178;13.546;2023-05-23T00:56:48;11.80;;;6.07;;
4420;SDS011;11824;51.178;13.546;2023-05-23T00:59:17;6.77;;;6.07;;
4420;SDS011;11824;51.178;13.546;2023-05-23T01:01:45;7.03;;;6.30;;
4420;SDS011;11824;51.178;13.546;2023-05-23T01:04:15;12.17;;;6.67;;
4420;SDS011;11824;51.178;13.546;2023-05-23T01:06:44;12.10;;;6.97;;
4420;SDS011;11824;51.178;13.546;2023-05-23T01:09:13;9.83;;;6.63;;
4420;SDS011;11824;51.178;13.546;2023-05-23T01:11:42;7.00;;;6.30;;
4420;SDS011;11824;51.178;13.546;2023-05-23T01:14:20;7.83;;;6.17;;
4420;SDS011;11824;51.178;13.546;2023-05-23T01:16:54;10.80;;;6.20;;
4420;SDS011;11824;51.178;13.546;2023-05-23T01:19:35;10.83;;;6.27;;
4420;SDS011;11824;51.178;13.546;2023-05-23T01:22:15;10.00;;;6.03;;
4420;SDS011;11824;51.178;13.546;2023-05-23T01:24:54;6.90;;;6.03;;
4420;SDS011;11824;51.178;13.546;2023-05-23T01:27:52;7.80;;;5.87;;
4420;SDS011;11824;51.178;13.546;2023-05-23T01:30:22;10.30;;;6.60;;
4420;SDS011;11824;51.178;13.546;2023-05-23T01:32:52;9.20;;;7.13;;
4420;SDS011;11824;51.178;13.546;2023-05-23T01:35:23;15.40;;;7.47;;
4420;SDS011;11824;51.178;13.546;2023-05-23T01:37:51;12.00;;;7.00;;
4420;SDS011;11824;51.178;13.546;2023-05-23T01:40:19;8.63;;;5.93;;
4420;SDS011;11824;51.178;13.546;2023-05-23T01:42:46;9.70;;;5.67;;
4420;SDS011;11824;51.178;13.546;2023-05-23T01:45:15;9.43;;;6.07;;
4420;SDS011;11824;51.178;13.546;2023-05-23T01:47:42;13.13;;;6.90;;
4420;SDS011;11824;51.178;13.546;2023-05-23T01:50:12;10.30;;;6.17;;
4420;SDS011;11824;51.178;13.546;2023-05-23T01:52:40;10.90;;;6.33;;
4420;SDS011;11824;51.178;13.546;2023-05-23T01:55:08;4.97;;;4.47;;
4420;SDS011;11824;51.178;13.546;2023-05-23T01:57:37;6.50;;;5.40;;
4420;SDS011;11824;51.178;13.546;2023-05-23T02:00:05;7.43;;;6.07;;
4420;SDS011;11824;51.178;13.546;2023-05-23T02:02:36;8.60;;;5.47;;
4420;SDS011;11824;51.178;13.546;2023-05-23T02:05:03;9.70;;;5.47;;
4420;SDS011;11824;51.178;13.546;2023-05-23T02:07:31;13.40;;;5.70;;
4420;SDS011;11824;51.178;13.546;2023-05-23T02:09:59;6.83;;;5.53;;
4420;SDS011;11824;51.178;13.546;2023-05-23T02:12:26;7.60;;;5.80;;
4420;SDS011;11824;51.178;13.546;2023-05-23T02:14:53;13.53;;;5.20;;
4420;SDS011;11824;51.178;13.546;2023-05-23T02:17:21;9.97;;;6.63;;
4420;SDS011;11824;51.178;13.546;2023-05-23T02:19:49;8.30;;;6.27;;
4420;SDS011;11824;51.178;13.546;2023-05-23T02:22:17;12.60;;;5.90;;
4420;SDS011;11824;51.178;13.546;2023-05-23T02:24:48;9.27;;;5.57;;
4420;SDS011;11824;51.178;13.546;2023-05-23T02:27:16;8.33;;;5.40;;
4420;SDS011;11824;51.178;13.546;2023-05-23T02:29:43;12.83;;;6.10;;
4420;SDS011;11824;51.178;13.546;2023-05-23T02:32:10;7.43;;;6.00;;
4420;SDS011;11824;51.178;13.546;2023-05-23T02:34:38;7.20;;;5.63;;
4420;SDS011;11824;51.178;13.546;2023-05-23T02:37:06;10.60;;;5.20;;
4420;SDS011;11824;51.178;13.546;2023-05-23T02:39:34;8.00;;;5.87;;
4420;SDS011;11824;51.178;13.546;2023-05-23T02:42:01;6.93;;;5.80;;
4420;SDS011;11824;51.178;13.546;2023-05-23T02:44:29;12.07;;;7.13;;
4420;SDS011;11824;51.178;13.546;2023-05-23T02:46:57;7.40;;;5.50;;
4420;SDS011;11824;51.178;13.546;2023-05-23T02:49:24;9.93;;;5.60;;
4420;SDS011;11824;51.178;13.546;2023-05-23T02:51:52;34.33;;;6.90;;
4420;SDS011;11824;51.178;13.546;2023-05-23T02:54:20;14.87;;;6.57;;
4420;SDS011;11824;51.178;13.546;2023-05-23T02:56:47;6.53;;;5.83;;
4420;SDS011;11824;51.178;13.546;2023-05-23T02:59:16;7.90;;;6.00;;
4420;SDS011;11824;51.178;13.546;2023-05-23T03:01:44;6.93;;;4.97;;
4420;SDS011;11824;51.178;13.546;2023-05-23T03:04:11;8.30;;;6.47;;
4420;SDS011;11824;51.178;13.546;2023-05-23T03:06:39;15.50;;;8.50;;
4420;SDS011;11824;51.178;13.546;2023-05-23T03:09:09;12.03;;;6.30;;
4420;SDS011;11824;51.178;13.546;2023-05-23T03:11:37;9.30;;;6.03;;
4420;SDS011;11824;51.178;13.546;2023-05-23T03:14:04;7.20;;;6.10;;
4420;SDS011;11824;51.178;13.546;2023-05-23T03:16:32;9.70;;;7.07;;
4420;SDS011;11824;51.178;13.546;2023-05-23T03:18:59;11.60;;;6.70;;
4420;SDS011;11824;51.178;13.546;2023-05-23T03:21:27;9.63;;;6.70;;
4420;SDS011;11824;51.178;13.546;2023-05-23T03:23:54;10.53;;;6.70;;
4420;SDS011;11824;51.178;13.546;2023-05-23T03:26:22;9.33;;;6.90;;
4420;SDS011;11824;51.178;13.546;2023-05-23T03:28:50;9.60;;;6.57;;
4420;SDS011;11824;51.178;13.546;2023-05-23T03:31:17;8.27;;;6.87;;
4420;SDS011;11824;51.178;13.546;2023-05-23T03:33:45;34.13;;;18.60;;
4420;SDS011;11824;51.178;13.546;2023-05-23T03:36:12;25.13;;;14.37;;
4420;SDS011;11824;51.178;13.546;2023-05-23T03:38:40;16.73;;;10.30;;
4420;SDS011;11824;51.178;13.546;2023-05-23T03:41:07;15.40;;;8.80;;
4420;SDS011;11824;51.178;13.546;2023-05-23T03:43:35;13.93;;;8.80;;
4420;SDS011;11824;51.178;13.546;2023-05-23T03:46:03;14.47;;;9.50;;
4420;SDS011;11824;51.178;13.546;2023-05-23T03:48:31;13.47;;;9.13;;
4420;SDS011;11824;51.178;13.546;2023-05-23T03:50:58;17.93;;;9.77;;
4420;SDS011;11824;51.178;13.546;2023-05-23T03:53:25;13.80;;;9.43;;
4420;SDS011;11824;51.178;13.546;2023-05-23T03:55:53;15.93;;;9.90;;
4420;SDS011;11824;51.178;13.546;2023-05-23T03:58:20;12.23;;;8.53;;
4420;SDS011;11824;51.178;13.546;2023-05-23T04:00:47;19.63;;;13.20;;
4420;SDS011;11824;51.178;13.546;2023-05-23T04:03:15;38.90;;;20.53;;
4420;SDS011;11824;51.178;13.546;2023-05-23T04:05:43;45.00;;;20.67;;
4420;SDS011;11824;51.178;13.546;2023-05-23T04:08:11;26.90;;;15.60;;
4420;SDS011;11824;51.178;13.546;2023-05-23T04:10:38;19.20;;;11.80;;
4420;SDS011;11824;51.178;13.546;2023-05-23T04:13:05;40.07;;;11.90;;
4420;SDS011;11824;51.178;13.546;2023-05-23T04:15:34;17.50;;;9.93;;
4420;SDS011;11824;51.178;13.546;2023-05-23T04:18:01;19.10;;;7.50;;
4420;SDS011;11824;51.178;13.546;2023-05-23T04:20:30;10.03;;;8.03;;
4420;SDS011;11824;51.178;13.546;2023-05-23T04:22:57;11.00;;;7.20;;
4420;SDS011;11824;51.178;13.546;2023-05-23T04:25:25;15.57;;;7.60;;
4420;SDS011;11824;51.178;13.546;2023-05-23T04:27:52;15.53;;;7.23;;
4420;SDS011;11824;51.178;13.546;2023-05-23T04:30:20;6.67;;;5.97;;
4420;SDS011;11824;51.178;13.546;2023-05-23T04:32:47;6.70;;;6.00;;
4420;SDS011;11824;51.178;13.546;2023-05-23T04:35:15;9.67;;;6.13;;
4420;SDS011;11824;51.178;13.546;2023-05-23T04:37:43;7.73;;;6.50;;
4420;SDS011;11824;51.178;13.546;2023-05-23T04:40:11;9.33;;;6.90;;
4420;SDS011;11824;51.178;13.546;2023-05-23T04:42:39;14.13;;;7.40;;
4420;SDS011;11824;51.178;13.546;2023-05-23T04:45:09;13.63;;;8.10;;
4420;SDS011;11824;51.178;13.546;2023-05-23T04:47:36;16.73;;;9.30;;
4420;SDS011;11824;51.178;13.546;2023-05-23T04:50:04;13.20;;;9.10;;
4420;SDS011;11824;51.178;13.546;2023-05-23T04:52:32;10.30;;;8.97;;
4420;SDS011;11824;51.178;13.546;2023-05-23T04:55:00;14.10;;;9.30;;
4420;SDS011;11824;51.178;13.546;2023-05-23T04:57:28;11.93;;;9.30;;
4420;SDS011;11824;51.178;13.546;2023-05-23T04:59:55;15.80;;;10.03;;
4420;SDS011;11824;51.178;13.546;2023-05-23T05:02:23;18.03;;;9.67;;
4420;SDS011;11824;51.178;13.546;2023-05-23T05:04:51;12.27;;;9.80;;
4420;SDS011;11824;51.178;13.546;2023-05-23T05:07:19;18.67;;;10.97;;
4420;SDS011;11824;51.178;13.546;2023-05-23T05:09:46;15.27;;;11.57;;
4420;SDS011;11824;51.178;13.546;2023-05-23T05:12:14;15.30;;;11.23;;
4420;SDS011;11824;51.178;13.546;2023-05-23T05:14:42;16.60;;;11.70;;
4420;SDS011;11824;51.178;13.546;2023-05-23T05:17:09;14.80;;;12.87;;
4420;SDS011;11824;51.178;13.546;2023-05-23T05:19:37;19.63;;;12.37;;
4420;SDS011;11824;51.178;13.546;2023-05-23T05:22:05;19.40;;;13.17;;
4420;SDS011;11824;51.178;13.546;2023-05-23T05:24:33;17.13;;;12.27;;
4420;SDS011;11824;51.178;13.546;2023-05-23T05:27:00;16.87;;;13.13;;
4420;SDS011;11824;51.178;13.546;2023-05-23T05:29:29;17.43;;;12.27;;
4420;SDS011;11824;51.178;13.546;2023-05-23T05:31:58;14.80;;;12.67;;
4420;SDS011;11824;51.178;13.546;2023-05-23T05:34:26;16.00;;;14.07;;
4420;SDS011;11824;51.178;13.546;2023-05-23T05:36:54;21.93;;;13.50;;
4420;SDS011;11824;51.178;13.546;2023-05-23T05:39:22;18.37;;;12.60;;
4420;SDS011;11824;51.178;13.546;2023-05-23T05:41:51;18.43;;;13.23;;
4420;SDS011;11824;51.178;13.546;2023-05-23T05:44:18;20.03;;;13.40;;
4420;SDS011;11824;51.178;13.546;2023-05-23T05:46:46;18.23;;;13.30;;
4420;SDS011;11824;51.178;13.546;2023-05-23T05:49:14;19.33;;;13.87;;
4420;SDS011;11824;51.178;13.546;2023-05-23T05:51:41;18.17;;;14.07;;
4420;SDS011;11824;51.178;13.546;2023-05-23T05:54:09;16.90;;;14.43;;
4420;SDS011;11824;51.178;13.546;2023-05-23T05:56:36;16.67;;;14.70;;
4420;SDS011;11824;51.178;13.546;2023-05-23T05:59:03;23.33;;;15.53;;
4420;SDS011;11824;51.178;13.546;2023-05-23T06:01:31;21.87;;;15.23;;
4420;SDS011;11824;51.178;13.546;2023-05-23T06:04:00;19.37;;;14.80;;
4420;SDS011;11824;51.178;13.546;2023-05-23T06:06:28;23.73;;;15.63;;
4420;SDS011;11824;51.178;13.546;2023-05-23T06:08:56;20.23;;;16.93;;
4420;SDS011;11824;51.178;13.546;2023-05-23T06:11:24;20.33;;;13.67;;
4420;SDS011;11824;51.178;13.546;2023-05-23T06:13:52;17.00;;;14.03;;
4420;SDS011;11824;51.178;13.546;2023-05-23T06:16:19;22.00;;;14.50;;
4420;SDS011;11824;51.178;13.546;2023-05-23T06:18:47;19.37;;;15.97;;
4420;SDS011;11824;51.178;13.546;2023-05-23T06:21:15;21.17;;;14.23;;
4420;SDS011;11824;51.178;13.546;2023-05-23T06:23:43;17.40;;;15.27;;
4420;SDS011;11824;51.178;13.546;2023-05-23T06:26:10;16.17;;;12.10;;
4420;SDS011;11824;51.178;13.546;2023-05-23T06:28:38;17.40;;;14.10;;
4420;SDS011;11824;51.178;13.546;2023-05-23T06:31:05;15.23;;;13.73;;
4420;SDS011;11824;51.178;13.546;2023-05-23T06:33:35;14.93;;;13.43;;
4420;SDS011;11824;51.178;13.546;2023-05-23T06:36:02;16.40;;;13.37;;
4420;SDS011;11824;51.178;13.546;2023-05-23T06:38:30;21.33;;;14.33;;
4420;SDS011;11824;51.178;13.546;2023-05-23T06:40:58;18.33;;;13.83;;
4420;SDS011;11824;51.178;13.546;2023-05-23T06:43:27;17.70;;;14.03;;
4420;SDS011;11824;51.178;13.546;2023-05-23T06:45:54;16.00;;;14.30;;
4420;SDS011;11824;51.178;13.546;2023-05-23T06:48:21;13.70;;;12.13;;
4420;SDS011;11824;51.178;13.546;2023-05-23T06:50:49;16.63;;;14.40;;
4420;SDS011;11824;51.178;13.546;2023-05-23T06:53:17;17.90;;;15.00;;
4420;SDS011;11824;51.178;13.546;2023-05-23T06:55:45;21.87;;;13.37;;
4420;SDS011;11824;51.178;13.546;2023-05-23T06:58:12;24.47;;;13.67;;
4420;SDS011;11824;51.178;13.546;2023-05-23T07:00:40;17.20;;;12.73;;
4420;SDS011;11824;51.178;13.546;2023-05-23T07:03:08;16.53;;;12.07;;
4420;SDS011;11824;51.178;13.546;2023-05-23T07:05:35;17.93;;;13.50;;
4420;SDS011;11824;51.178;13.546;2023-05-23T07:08:06;16.13;;;12.40;;
4420;SDS011;11824;51.178;13.546;2023-05-23T07:10:35;14.00;;;12.43;;
4420;SDS011;11824;51.178;13.546;2023-05-23T07:13:05;13.60;;;12.23;;
4420;SDS011;11824;51.178;13.546;2023-05-23T07:15:32;17.33;;;11.57;;
4420;SDS011;11824;51.178;13.546;2023-05-23T07:18:00;15.90;;;12.90;;
4420;SDS011;11824;51.178;13.546;2023-05-23T07:20:27;14.70;;;12.10;;
4420;SDS011;11824;51.178;13.546;2023-05-23T07:22:54;16.57;;;12.37;;
4420;SDS011;11824;51.178;13.546;2023-05-23T07:25:22;18.70;;;11.27;;
4420;SDS011;11824;51.178;13.546;2023-05-23T07:27:49;15.60;;;12.83;;
4420;SDS011;11824;51.178;13.546;2023-05-23T07:30:19;13.77;;;10.83;;
4420;SDS011;11824;51.178;13.546;2023-05-23T07:32:47;20.57;;;11.90;;
4420;SDS011;11824;51.178;13.546;2023-05-23T07:35:17;18.77;;;11.47;;
4420;SDS011;11824;51.178;13.546;2023-05-23T07:37:48;15.30;;;12.50;;
4420;SDS011;11824;51.178;13.546;2023-05-23T07:40:16;10.57;;;9.47;;
4420;SDS011;11824;51.178;13.546;2023-05-23T07:42:43;11.63;;;9.83;;
4420;SDS011;11824;51.178;13.546;2023-05-23T07:45:11;14.50;;;13.03;;
4420;SDS011;11824;51.178;13.546;2023-05-23T07:47:39;10.63;;;9.63;;
4420;SDS011;11824;51.178;13.546;2023-05-23T07:50:07;14.27;;;12.37;;
4420;SDS011;11824;51.178;13.546;2023-05-23T07:52:35;14.10;;;12.70;;
4420;SDS011;11824;51.178;13.546;2023-05-23T07:55:03;15.17;;;12.03;;
4420;SDS011;11824;51.178;13.546;2023-05-23T07:57:31;16.40;;;13.57;;
4420;SDS011;11824;51.178;13.546;2023-05-23T07:59:58;14.30;;;12.80;;
4420;SDS011;11824;51.178;13.546;2023-05-23T08:02:26;14.83;;;11.97;;
4420;SDS011;11824;51.178;13.546;2023-05-23T08:04:54;14.20;;;12.80;;
4420;SDS011;11824;51.178;13.546;2023-05-23T08:07:22;15.70;;;12.63;;
4420;SDS011;11824;51.178;13.546;2023-05-23T08:09:49;22.63;;;14.93;;
4420;SDS011;11824;51.178;13.546;2023-05-23T08:12:17;16.30;;;12.37;;
4420;SDS011;11824;51.178;13.546;2023-05-23T08:14:44;16.67;;;12.80;;
4420;SDS011;11824;51.178;13.546;2023-05-23T08:17:17;14.50;;;11.80;;
4420;SDS011;11824;51.178;13.546;2023-05-23T08:19:45;14.97;;;11.63;;
4420;SDS011;11824;51.178;13.546;2023-05-23T08:22:13;13.23;;;10.70;;
4420;SDS011;11824;51.178;13.546;2023-05-23T08:24:40;14.80;;;11.30;;
4420;SDS011;11824;51.178;13.546;2023-05-23T08:27:07;13.90;;;10.50;;
4420;SDS011;11824;51.178;13.546;2023-05-23T08:29:35;17.67;;;11.73;;
4420;SDS011;11824;51.178;13.546;2023-05-23T08:32:03;16.77;;;12.27;;
4420;SDS011;11824;51.178;13.546;2023-05-23T08:34:30;15.87;;;13.00;;
4420;SDS011;11824;51.178;13.546;2023-05-23T08:36:58;14.47;;;11.70;;
4420;SDS011;11824;51.178;13.546;2023-05-23T08:39:26;13.90;;;9.87;;
4420;SDS011;11824;51.178;13.546;2023-05-23T08:41:54;13.13;;;10.53;;
4420;SDS011;11824;51.178;13.546;2023-05-23T08:44:21;15.20;;;10.80;;
4420;SDS011;11824;51.178;13.546;2023-05-23T08:46:49;16.57;;;11.47;;
4420;SDS011;11824;51.178;13.546;2023-05-23T08:49:18;13.23;;;11.80;;
4420;SDS011;11824;51.178;13.546;2023-05-23T08:51:47;25.90;;;15.83;;
4420;SDS011;11824;51.178;13.546;2023-05-23T08:54:20;18.43;;;16.07;;
4420;SDS011;11824;51.178;13.546;2023-05-23T08:56:48;32.03;;;21.90;;
4420;SDS011;11824;51.178;13.546;2023-05-23T08:59:16;32.83;;;22.40;;
4420;SDS011;11824;51.178;13.546;2023-05-23T09:01:45;35.03;;;24.30;;
4420;SDS011;11824;51.178;13.546;2023-05-23T09:04:14;40.30;;;25.93;;
4420;SDS011;11824;51.178;13.546;2023-05-23T09:06:42;57.20;;;31.23;;
4420;SDS011;11824;51.178;13.546;2023-05-23T09:09:09;42.77;;;29.63;;
4420;SDS011;11824;51.178;13.546;2023-05-23T09:11:37;38.23;;;28.57;;
4420;SDS011;11824;51.178;13.546;2023-05-23T09:14:05;30.27;;;21.37;;
4420;SDS011;11824;51.178;13.546;2023-05-23T09:16:33;46.00;;;29.97;;
4420;SDS011;11824;51.178;13.546;2023-05-23T09:19:08;40.83;;;29.57;;
4420;SDS011;11824;51.178;13.546;2023-05-23T09:21:37;44.23;;;28.73;;
4420;SDS011;11824;51.178;13.546;2023-05-23T09:24:08;37.60;;;28.13;;
4420;SDS011;11824;51.178;13.546;2023-05-23T09:26:36;44.40;;;29.07;;
4420;SDS011;11824;51.178;13.546;2023-05-23T09:29:04;42.87;;;29.37;;
4420;SDS011;11824;51.178;13.546;2023-05-23T09:31:32;40.50;;;28.60;;
4420;SDS011;11824;51.178;13.546;2023-05-23T09:33:59;35.40;;;26.13;;
4420;SDS011;11824;51.178;13.546;2023-05-23T09:36:27;34.50;;;23.77;;
4420;SDS011;11824;51.178;13.546;2023-05-23T09:38:57;32.60;;;22.20;;
4420;SDS011;11824;51.178;13.546;2023-05-23T09:41:29;35.03;;;21.43;;
4420;SDS011;11824;51.178;13.546;2023-05-23T09:43:59;29.87;;;19.50;;
4420;SDS011;11824;51.178;13.546;2023-05-23T09:46:34;29.37;;;17.90;;
4420;SDS011;11824;51.178;13.546;2023-05-23T09:49:09;26.80;;;16.10;;
4420;SDS011;11824;51.178;13.546;2023-05-23T09:51:43;24.90;;;15.00;;
4420;SDS011;11824;51.178;13.546;2023-05-23T09:54:21;17.70;;;13.83;;
4420;SDS011;11824;51.178;13.546;2023-05-23T09:56:49;18.10;;;13.30;;
4420;SDS011;11824;51.178;13.546;2023-05-23T09:59:22;19.37;;;13.90;;
4420;SDS011;11824;51.178;13.546;2023-05-23T10:01:52;15.93;;;13.20;;
4420;SDS011;11824;51.178;13.546;2023-05-23T10:04:23;17.00;;;11.70;;
4420;SDS011;11824;51.178;13.546;2023-05-23T10:06:55;14.40;;;10.67;;
4420;SDS011;11824;51.178;13.546;2023-05-23T10:09:26;15.57;;;12.53;;
4420;SDS011;11824;51.178;13.546;2023-05-23T10:15:03;13.57;;;9.93;;
4420;SDS011;11824;51.178;13.546;2023-05-23T10:17:35;21.30;;;10.07;;
4420;SDS011;11824;51.178;13.546;2023-05-23T10:20:07;12.67;;;7.67;;
4420;SDS011;11824;51.178;13.546;2023-05-23T10:22:37;11.97;;;8.93;;
4420;SDS011;11824;51.178;13.546;2023-05-23T10:25:05;14.73;;;9.47;;
4420;SDS011;11824;51.178;13.546;2023-05-23T10:27:34;10.80;;;7.00;;
4420;SDS011;11824;51.178;13.546;2023-05-23T10:30:04;12.20;;;9.00;;
4420;SDS011;11824;51.178;13.546;2023-05-23T10:32:33;13.60;;;10.27;;
4420;SDS011;11824;51.178;13.546;2023-05-23T10:35:03;14.57;;;11.90;;
4420;SDS011;11824;51.178;13.546;2023-05-23T10:37:38;16.93;;;11.50;;
4420;SDS011;11824;51.178;13.546;2023-05-23T10:40:11;13.40;;;10.87;;
4420;SDS011;11824;51.178;13.546;2023-05-23T10:42:47;13.63;;;10.67;;
4420;SDS011;11824;51.178;13.546;2023-05-23T10:45:19;16.53;;;10.90;;
4420;SDS011;11824;51.178;13.546;2023-05-23T10:47:47;13.70;;;10.87;;
4420;SDS011;11824;51.178;13.546;2023-05-23T10:50:29;15.07;;;10.50;;
4420;SDS011;11824;51.178;13.546;2023-05-23T10:52:58;10.40;;;8.90;;
4420;SDS011;11824;51.178;13.546;2023-05-23T10:55:29;11.17;;;9.20;;
4420;SDS011;11824;51.178;13.546;2023-05-23T10:58:11;14.90;;;9.70;;
4420;SDS011;11824;51.178;13.546;2023-05-23T11:00:49;13.30;;;10.40;;
4420;SDS011;11824;51.178;13.546;2023-05-23T11:03:18;10.57;;;9.10;;
4420;SDS011;11824;51.178;13.546;2023-05-23T11:05:58;12.20;;;9.23;;
4420;SDS011;11824;51.178;13.546;2023-05-23T11:08:26;12.73;;;9.03;;
4420;SDS011;11824;51.178;13.546;2023-05-23T11:11:13;11.10;;;8.90;;
4420;SDS011;11824;51.178;13.546;2023-05-23T11:13:54;13.97;;;9.37;;
4420;SDS011;11824;51.178;13.546;2023-05-23T11:16:26;12.40;;;8.50;;
4420;SDS011;11824;51.178;13.546;2023-05-23T11:21:48;12.47;;;9.23;;
4420;SDS011;11824;51.178;13.546;2023-05-23T11:24:17;10.90;;;8.40;;
4420;SDS011;11824;51.178;13.546;2023-05-23T11:26:50;15.40;;;8.77;;
4420;SDS011;11824;51.178;13.546;2023-05-23T11:29:19;8.20;;;7.40;;
4420;SDS011;11824;51.178;13.546;2023-05-23T11:31:47;10.63;;;7.87;;
4420;SDS011;11824;51.178;13.546;2023-05-23T11:34:15;11.00;;;8.77;;
4420;SDS011;11824;51.178;13.546;2023-05-23T11:36:43;13.27;;;8.20;;
4420;SDS011;11824;51.178;13.546;2023-05-23T11:39:11;11.53;;;8.90;;
4420;SDS011;11824;51.178;13.546;2023-05-23T11:41:40;10.50;;;7.83;;
4420;SDS011;11824;51.178;13.546;2023-05-23T11:44:11;16.20;;;9.60;;
4420;SDS011;11824;51.178;13.546;2023-05-23T11:46:38;22.73;;;8.70;;
4420;SDS011;11824;51.178;13.546;2023-05-23T11:49:10;10.90;;;8.33;;
4420;SDS011;11824;51.178;13.546;2023-05-23T11:51:37;13.77;;;8.63;;
4420;SDS011;11824;51.178;13.546;2023-05-23T11:54:05;12.70;;;10.13;;
4420;SDS011;11824;51.178;13.546;2023-05-23T11:56:37;14.47;;;10.00;;
4420;SDS011;11824;51.178;13.546;2023-05-23T11:59:05;12.40;;;8.90;;
4420;SDS011;11824;51.178;13.546;2023-05-23T12:01:35;14.10;;;8.67;;
4420;SDS011;11824;51.178;13.546;2023-05-23T12:04:08;9.57;;;8.00;;
4420;SDS011;11824;51.178;13.546;2023-05-23T12:06:37;7.80;;;6.97;;
4420;SDS011;11824;51.178;13.546;2023-05-23T12:09:06;14.27;;;7.90;;
4420;SDS011;11824;51.178;13.546;2023-05-23T12:11:36;8.90;;;7.30;;
4420;SDS011;11824;51.178;13.546;2023-05-23T12:14:04;11.53;;;7.57;;
4420;SDS011;11824;51.178;13.546;2023-05-23T12:16:32;7.93;;;7.00;;
4420;SDS011;11824;51.178;13.546;2023-05-23T12:19:01;9.67;;;8.67;;
4420;SDS011;11824;51.178;13.546;2023-05-23T12:21:40;14.70;;;10.70;;
4420;SDS011;11824;51.178;13.546;2023-05-23T12:24:15;14.80;;;8.57;;
4420;SDS011;11824;51.178;13.546;2023-05-23T12:26:50;13.47;;;8.30;;
4420;SDS011;11824;51.178;13.546;2023-05-23T12:29:18;9.90;;;7.43;;
4420;SDS011;11824;51.178;13.546;2023-05-23T12:31:47;8.83;;;6.43;;
4420;SDS011;11824;51.178;13.546;2023-05-23T12:34:15;6.60;;;5.83;;
4420;SDS011;11824;51.178;13.546;2023-05-23T12:36:45;11.97;;;7.30;;
4420;SDS011;11824;51.178;13.546;2023-05-23T12:39:22;8.03;;;6.63;;
4420;SDS011;11824;51.178;13.546;2023-05-23T12:41:51;7.13;;;6.33;;
4420;SDS011;11824;51.178;13.546;2023-05-23T12:44:20;9.17;;;6.60;;
4420;SDS011;11824;51.178;13.546;2023-05-23T12:46:48;8.60;;;6.43;;
4420;SDS011;11824;51.178;13.546;2023-05-23T12:49:15;9.37;;;6.57;;
4420;SDS011;11824;51.178;13.546;2023-05-23T12:51:43;8.33;;;5.53;;
4420;SDS011;11824;51.178;13.546;2023-05-23T12:54:11;7.60;;;6.73;;
4420;SDS011;11824;51.178;13.546;2023-05-23T12:56:39;6.90;;;5.67;;
4420;SDS011;11824;51.178;13.546;2023-05-23T12:59:06;10.43;;;6.53;;
4420;SDS011;11824;51.178;13.546;2023-05-23T13:01:34;10.27;;;6.80;;
4420;SDS011;11824;51.178;13.546;2023-05-23T13:04:01;8.70;;;5.53;;
4420;SDS011;11824;51.178;13.546;2023-05-23T13:06:29;12.40;;;6.20;;
4420;SDS011;11824;51.178;13.546;2023-05-23T13:08:57;7.63;;;6.30;;
4420;SDS011;11824;51.178;13.546;2023-05-23T13:11:24;7.03;;;5.27;;
4420;SDS011;11824;51.178;13.546;2023-05-23T13:13:52;6.57;;;5.83;;
4420;SDS011;11824;51.178;13.546;2023-05-23T13:16:19;11.97;;;5.50;;
4420;SDS011;11824;51.178;13.546;2023-05-23T13:18:46;6.07;;;4.97;;
4420;SDS011;11824;51.178;13.546;2023-05-23T13:21:14;6.20;;;5.30;;
4420;SDS011;11824;51.178;13.546;2023-05-23T13:23:41;7.83;;;4.93;;
4420;SDS011;11824;51.178;13.546;2023-05-23T13:26:09;11.03;;;5.10;;
4420;SDS011;11824;51.178;13.546;2023-05-23T13:28:39;6.80;;;4.73;;
4420;SDS011;11824;51.178;13.546;2023-05-23T13:31:06;4.70;;;4.30;;
4420;SDS011;11824;51.178;13.546;2023-05-23T13:33:33;5.63;;;4.67;;
4420;SDS011;11824;51.178;13.546;2023-05-23T13:36:02;6.90;;;4.63;;
4420;SDS011;11824;51.178;13.546;2023-05-23T13:38:29;7.57;;;4.90;;
4420;SDS011;11824;51.178;13.546;2023-05-23T13:40:56;6.40;;;4.77;;
4420;SDS011;11824;51.178;13.546;2023-05-23T13:43:24;5.30;;;4.80;;
4420;SDS011;11824;51.178;13.546;2023-05-23T13:45:52;5.20;;;4.50;;
4420;SDS011;11824;51.178;13.546;2023-05-23T13:48:19;5.63;;;4.90;;
4420;SDS011;11824;51.178;13.546;2023-05-23T13:50:47;4.37;;;3.97;;
4420;SDS011;11824;51.178;13.546;2023-05-23T13:53:14;3.83;;;3.40;;
4420;SDS011;11824;51.178;13.546;2023-05-23T13:55:41;7.90;;;3.90;;
4420;SDS011;11824;51.178;13.546;2023-05-23T13:58:10;4.53;;;3.03;;
4420;SDS011;11824;51.178;13.546;2023-05-23T14:00:38;7.83;;;3.37;;
4420;SDS011;11824;51.178;13.546;2023-05-23T14:03:06;3.67;;;3.30;;
4420;SDS011;11824;51.178;13.546;2023-05-23T14:05:33;4.80;;;3.60;;
4420;SDS011;11824;51.178;13.546;2023-05-23T14:08:01;3.10;;;2.77;;
4420;SDS011;11824;51.178;13.546;2023-05-23T14:10:28;3.20;;;2.90;;
4420;SDS011;11824;51.178;13.546;2023-05-23T14:12:57;3.83;;;2.70;;
4420;SDS011;11824;51.178;13.546;2023-05-23T14:15:25;4.60;;;3.40;;
4420;SDS011;11824;51.178;13.546;2023-05-23T14:17:53;5.10;;;4.40;;
4420;SDS011;11824;51.178;13.546;2023-05-23T14:20:21;4.03;;;3.63;;
4420;SDS011;11824;51.178;13.546;2023-05-23T14:22:49;4.50;;;4.10;;
4420;SDS011;11824;51.178;13.546;2023-05-23T14:25:17;6.37;;;4.07;;
4420;SDS011;11824;51.178;13.546;2023-05-23T14:27:44;4.70;;;4.30;;
4420;SDS011;11824;51.178;13.546;2023-05-23T14:30:12;4.70;;;4.30;;
4420;SDS011;11824;51.178;13.546;2023-05-23T14:32:39;5.97;;;4.90;;
4420;SDS011;11824;51.178;13.546;2023-05-23T14:35:08;9.33;;;5.00;;
4420;SDS011;11824;51.178;13.546;2023-05-23T14:37:36;5.27;;;4.80;;
4420;SDS011;11824;51.178;13.546;2023-05-23T14:40:04;7.87;;;5.63;;
4420;SDS011;11824;51.178;13.546;2023-05-23T14:42:34;6.10;;;4.77;;
4420;SDS011;11824;51.178;13.546;2023-05-23T14:45:02;5.93;;;4.90;;
4420;SDS011;11824;51.178;13.546;2023-05-23T14:47:30;6.20;;;5.60;;
4420;SDS011;11824;51.178;13.546;2023-05-23T14:49:58;7.33;;;5.30;;